D/T METAR WX W/DIR W/SPE G/SPE TEMP DEWP
16/01/19 02:50 EGDY 160250Z 22011KT 9999 FEW010 BKN050 10/07 Q1011 BLU SW (220°) 12.7mph 10°C 7°C
16/01/19 01:50 EGDY 160150Z 22010KT 9999 FEW015 BKN025 09/07 Q1011 BLU SW (220°) 11.5mph 9°C 7°C
16/01/19 00:50 EGDY 160050Z 22010KT 9999 BKN014 09/07 Q1012 GRN SW (220°) 11.5mph 9°C 7°C
15/01/19 23:50 EGDY 152350Z 21011KT 9999 SCT012 SCT140 09/07 Q1013 GRN SSW (210°) 12.7mph 9°C 7°C
15/01/19 22:50 EGDY 152250Z 21009KT 9999 FEW030 BKN140 09/06 Q1014 BLU SSW (210°) 10.4mph 9°C 6°C
15/01/19 21:50 EGDY 152150Z 22011KT 9999 SCT028 SCT160 09/06 Q1015 BLU NOSIG SW (220°) 12.7mph 9°C 6°C
15/01/19 20:50 EGDY 152050Z 22009KT 9999 SCT030 SCT160 08/07 Q1015 BLU NOSIG SW (220°) 10.4mph 8°C 7°C
15/01/19 19:50 EGDY 151950Z 20009KT 9999 FEW020 SCT160 08/06 Q1016 BLU NOSIG SSW (200°) 10.4mph 8°C 6°C
15/01/19 18:50 EGDY 151850Z 21007KT 9999 FEW020 BKN028 08/04 Q1017 BLU TEMPO SCT020 WHT SSW (210°) 8.1mph 8°C 4°C
15/01/19 17:50 EGDY 151750Z 24006KT 9999 FEW012 BKN028 09/04 Q1017 BLU TEMPO SCT020 WHT WSW (240°) 6.9mph 9°C 4°C
15/01/19 16:50 EGDY 151650Z 23007KT 9999 FEW012 BKN026 10/05 Q1017 BLU TEMPO SCT012 GRN SW (230°) 8.1mph 10°C 5°C
15/01/19 15:50 EGDY 151550Z 23009KT 9999 FEW013 BKN028 10/06 Q1018 BLU TEMPO SCT012 GRN SW (230°) 10.4mph 10°C 6°C
15/01/19 14:50 EGDY 151450Z 24008KT 9999 FEW014 BKN028 10/06 Q1018 BLU TEMPO SCT012 GRN WSW (240°) 9.2mph 10°C 6°C
15/01/19 13:50 EGDY 151350Z 25008KT 9999 FEW014 SCT020 BKN035 10/06 Q1019 WHT TEMPO SCT012 GRN WSW (250°) 9.2mph 10°C 6°C
15/01/19 12:50 EGDY 151250Z 24011KT 9999 FEW014 BKN020 10/06 Q1020 WHT TEMPO SCT012 GRN WSW (240°) 12.7mph 10°C 6°C
15/01/19 11:50 EGDY 151150Z 23009KT 9999 FEW015 BKN020 10/07 Q1020 WHT TEMPO SCT012 GRN SW (230°) 10.4mph 10°C 7°C
15/01/19 10:50 EGDY 151050Z 22010KT 9999 FEW015 BKN025 09/07 Q1021 BLU TEMPO SCT012 GRN SW (220°) 11.5mph 9°C 7°C
15/01/19 09:50 EGDY 150950Z 22009KT 9999 FEW015 BKN025 08/06 Q1021 BLU TEMPO SCT012 GRN SW (220°) 10.4mph 8°C 6°C
15/01/19 08:50 EGDY 150850Z 21006KT 9999 FEW015 BKN030 07/05 Q1022 BLU TEMPO SCT012 GRN SSW (210°) 6.9mph 7°C 5°C
15/01/19 07:50 EGDY 150750Z 22009KT 9999 FEW013 BKN026 07/06 Q1022 BLU TEMPO SCT012 GRN SW (220°) 10.4mph 7°C 6°C
15/01/19 06:50 EGDY 150650Z 22008KT 9999 FEW010 BKN025 08/05 Q1022 BLU TEMPO SCT022 WHT SW (220°) 9.2mph 8°C 5°C
15/01/19 05:50 EGDY 150550Z 24006KT 9999 FEW010 BKN022 08/05 Q1022 WHT WSW (240°) 6.9mph 8°C 5°C
15/01/19 04:50 EGDY 150450Z 23006KT 9999 FEW010 BKN025 07/05 Q1022 BLU SW (230°) 6.9mph 7°C 5°C
15/01/19 03:50 EGDY 150350Z 23007KT 9999 FEW010 BKN022 07/05 Q1023 WHT SW (230°) 8.1mph 7°C 5°C
15/01/19 02:50 EGDY 150250Z 26007KT 9999 BKN020 08/04 Q1023 WHT W (260°) 8.1mph 8°C 4°C
15/01/19 01:50 EGDY 150150Z 25008KT 9999 -RA SCT020 BKN030 07/04 Q1023 WHT -RA WSW (250°) 9.2mph 7°C 4°C
15/01/19 00:50 EGDY 150050Z 24004KT 9999 BKN028 07/03 Q1024 BLU WSW (240°) 4.6mph 7°C 3°C
14/01/19 23:50 EGDY 142350Z 23005KT 9999 BKN030 07/02 Q1024 BLU SW (230°) 5.8mph 7°C 2°C
14/01/19 22:50 EGDY 142250Z 25005KT 9999 BKN035 06/02 Q1025 BLU NOSIG WSW (250°) 5.8mph 6°C 2°C
14/01/19 21:50 EGDY 142150Z 27004KT 9999 BKN035 05/02 Q1025 BLU NOSIG W (270°) 4.6mph 5°C 2°C
14/01/19 20:50 EGDY 142050Z 24004KT 9999 BKN035 07/04 Q1024 BLU NOSIG WSW (240°) 4.6mph 7°C 4°C
14/01/19 19:50 EGDY 141950Z 24005KT 9999 SCT040 06/04 Q1024 BLU NOSIG WSW (240°) 5.8mph 6°C 4°C
14/01/19 18:50 EGDY 141850Z 28005KT 9999 FEW020 BKN040 07/04 Q1024 BLU NOSIG W (280°) 5.8mph 7°C 4°C
14/01/19 17:50 EGDY 141750Z 28007KT 9999 FEW020 BKN038 07/04 Q1024 BLU NOSIG W (280°) 8.1mph 7°C 4°C
14/01/19 16:50 EGDY 141650Z 30009KT 9999 FEW020 BKN038 08/04 Q1024 BLU WNW (300°) 10.4mph 8°C 4°C
14/01/19 15:50 EGDY 141550Z 30010KT 9999 FEW020 BKN040 08/04 Q1024 BLU NOSIG WNW (300°) 11.5mph 8°C 4°C
14/01/19 14:50 EGDY 141450Z 30009KT 9999 FEW020 BKN038 09/03 Q1024 BLU NOSIG WNW (300°) 10.4mph 9°C 3°C
14/01/19 13:50 EGDY 141350Z 30009KT 9999 FEW020 BKN040 09/03 Q1023 BLU NOSOG WNW (300°) 10.4mph 9°C 3°C
14/01/19 12:50 EGDY 141250Z 31009KT 9999 FEW020 BKN040 09/03 Q1023 BLU NW (310°) 10.4mph 9°C 3°C
14/01/19 11:50 EGDY 141150Z 31012KT 9999 FEW025 BKN040 10/02 Q1023 BLU NOSIG NW (310°) 13.8mph 10°C 2°C
14/01/19 10:50 EGDY 141050Z 30010KT 9999 BKN040 09/04 Q1023 BLU NOSIG WNW (300°) 11.5mph 9°C 4°C
14/01/19 09:50 EGDY 140950Z 31008KT 9999 BKN040 08/04 Q1023 BLU NOSIG NW (310°) 9.2mph 8°C 4°C
14/01/19 08:50 EGDY 140850Z 31008KT 9999 BKN035 08/05 Q1023 BLU NW (310°) 9.2mph 8°C 5°C
14/01/19 07:50 EGDY 140750Z 30009KT 9999 FEW035 BKN040 08/04 Q1022 BLU NOSIG WNW (300°) 10.4mph 8°C 4°C
14/01/19 06:50 EGDY 140650Z 31008KT 9999 BKN040 08/04 Q1021 BLU NW (310°) 9.2mph 8°C 4°C
14/01/19 05:50 EGDY 140550Z 30011KT 9999 BKN040 08/04 Q1021 BLU WNW (300°) 12.7mph 8°C 4°C
14/01/19 04:50 EGDY 140450Z 29010KT 9999 BKN040 08/04 Q1020 BLU WNW (290°) 11.5mph 8°C 4°C
14/01/19 03:50 EGDY 140350Z 29012KT 9999 BKN040 08/03 Q1020 BLU WNW (290°) 13.8mph 8°C 3°C
14/01/19 02:50 EGDY 140250Z 28007KT 9999 BKN040 08/04 Q1020 BLU W (280°) 8.1mph 8°C 4°C
14/01/19 01:50 EGDY 140150Z 28010KT 9999 BKN040 08/04 Q1019 BLU W (280°) 11.5mph 8°C 4°C
14/01/19 00:50 EGDY 140050Z AUTO 31009KT 9999 OVC042/// 08/03 Q1018 NW (310°) 10.4mph 8°C 3°C
13/01/19 23:50 EGDY 132350Z AUTO 29004KT 9999 BKN040/// 07/04 Q1018 WNW (290°) 4.6mph 7°C 4°C
13/01/19 22:50 EGDY 132250Z AUTO 30011KT 9999 FEW041/// 08/04 Q1017 WNW (300°) 12.7mph 8°C 4°C
13/01/19 21:50 EGDY 132150Z AUTO 30014KT 9999 BKN041/// 10/06 Q1017 WNW (300°) 16.1mph 10°C 6°C
13/01/19 20:50 EGDY 132050Z AUTO 30020KT 9999 BKN038/// 10/07 Q1016 WNW (300°) 23.0mph 10°C 7°C
13/01/19 19:50 EGDY 131950Z AUTO 30021KT 9999 FEW017/// BKN037/// 11/08 Q1015 WNW (300°) 24.2mph 11°C 8°C
13/01/19 18:50 EGDY 131850Z AUTO 30022KT 9999 FEW016/// SCT036/// 11/08 Q1015 WNW (300°) 25.3mph 11°C 8°C
13/01/19 17:50 EGDY 131750Z AUTO 29023KT 9999 NCD 11/08 Q1014 WNW (290°) 26.5mph 11°C 8°C
13/01/19 16:50 EGDY 131650Z AUTO 29026KT 9999 BKN013/// 11/08 Q1015 WNW (290°) 29.9mph 11°C 8°C
13/01/19 15:50 EGDY 131550Z AUTO 26016KT 9999 BKN006/// 10/09 Q1015 W (260°) 18.4mph 10°C 9°C
13/01/19 14:50 EGDY 131450Z AUTO 26017KT 9999 FEW008/// BKN015/// 10/09 Q1016 W (260°) 19.6mph 10°C 9°C
13/01/19 14:17 EGDY 131417Z 27021KT 7000 -DZ SCT012 BKN018 10/08 Q1016 GRN -DZ W (270°) 24.2mph 10°C 8°C
13/01/19 12:50 EGDY 131250Z 27025KT 9999 FEW018 SCT035 BKN200 11/08 Q1016 BLU NOSIG W (270°) 28.8mph 11°C 8°C
13/01/19 11:50 EGDY 131150Z 27014KT 9999 FEW018 SCT035 BKN200 11/07 Q1017 BLU NOSIG W (270°) 16.1mph 11°C 7°C
13/01/19 10:50 EGDY 131050Z 28013KT 9999 FEW018 SCT080 BKN200 10/07 Q1018 BLU NOSIG W (280°) 15.0mph 10°C 7°C
13/01/19 09:50 EGDY 130950Z AUTO 27009KT 9999 NCD 09/07 Q1019 W (270°) 10.4mph 9°C 7°C
13/01/19 08:50 EGDY 130850Z AUTO 27016KT 9999 FEW024/// 09/07 Q1019 W (270°) 18.4mph 9°C 7°C
13/01/19 07:50 EGDY 130750Z AUTO 27015KT 9999 FEW220/// 09/07 Q1018 W (270°) 17.3mph 9°C 7°C
13/01/19 06:50 EGDY 130650Z AUTO 27018KT 9999 FEW018/// SCT220/// 10/07 Q1019 W (270°) 20.7mph 10°C 7°C
13/01/19 05:50 EGDY 130550Z AUTO 28010KT 9999 BKN018/// 10/08 Q1020 W (280°) 11.5mph 10°C 8°C
13/01/19 04:50 EGDY 130450Z AUTO 29005KT 9999 SCT010/// SCT160/// 09/08 Q1020 WNW (290°) 5.8mph 9°C 8°C
13/01/19 03:50 EGDY 130350Z AUTO 29007KT 9999 BKN013/// 09/08 Q1021 WNW (290°) 8.1mph 9°C 8°C
13/01/19 02:50 EGDY 130250Z AUTO 22004KT 9999 OVC014/// 10/08 Q1021 SW (220°) 4.6mph 10°C 8°C
13/01/19 01:50 EGDY 130150Z AUTO 27012KT 9999 OVC016/// 10/08 Q1022 W (270°) 13.8mph 10°C 8°C
13/01/19 00:50 EGDY 130050Z AUTO 28016KT 9999 BKN015/// 11/08 Q1022 W (280°) 18.4mph 11°C 8°C
12/01/19 23:50 EGDY 122350Z AUTO 28020KT 9999 OVC015/// 11/08 Q1023 W (280°) 23.0mph 11°C 8°C
12/01/19 22:50 EGDY 122250Z AUTO 29020KT 9999 OVC014/// 11/08 Q1023 WNW (290°) 23.0mph 11°C 8°C
12/01/19 21:50 EGDY 122150Z AUTO 29020KT 9999 BKN014/// SCT019/// BKN022/// 11/08 Q1023 WNW (290°) 23.0mph 11°C 8°C
12/01/19 20:50 EGDY 122050Z AUTO 29022KT 9999 OVC016/// 11/08 Q1023 WNW (290°) 25.3mph 11°C 8°C
12/01/19 19:50 EGDY 121950Z AUTO 28019G30KT 9999 OVC018/// 10/07 Q1023 W (280°) 21.9mph 34.5mph 10°C 7°C
12/01/19 18:50 EGDY 121850Z AUTO 29016KT 9999 BKN018/// 10/07 Q1023 WNW (290°) 18.4mph 10°C 7°C
12/01/19 17:50 EGDY 121750Z AUTO 28014KT 9999 FEW019/// BKN023/// 09/06 Q1024 W (280°) 16.1mph 9°C 6°C
12/01/19 16:50 EGDY 121650Z AUTO 29016KT 9999 BKN026/// 09/06 Q1024 WNW (290°) 18.4mph 9°C 6°C
12/01/19 15:50 EGDY 121550Z AUTO 29017KT 9999 SCT120/// SCT150/// 09/06 Q1024 WNW (290°) 19.6mph 9°C 6°C
12/01/19 14:50 EGDY 121450Z AUTO 30013KT 9999 FEW019/// BKN120/// 10/07 Q1024 WNW (300°) 15.0mph 10°C 7°C
12/01/19 13:50 EGDY 121350Z AUTO 29019KT 9999 FEW018/// 10/07 Q1024 WNW (290°) 21.9mph 10°C 7°C
12/01/19 12:50 EGDY 121250Z AUTO 30019KT 9999 SCT017/// SCT160/// 10/07 Q1025 WNW (300°) 21.9mph 10°C 7°C
12/01/19 11:50 EGDY 121150Z AUTO 28011KT 9999 BKN021/// 10/09 Q1025 RERA W (280°) 12.7mph 10°C 9°C
12/01/19 10:50 EGDY 121050Z AUTO 25008KT 7000 -DZ BKN015/// 09/09 Q1025 -DZ WSW (250°) 9.2mph 9°C 9°C
12/01/19 09:50 EGDY 120950Z AUTO 25010KT 5000 HZ BKN016/// SCT024/// 09/08 Q1026 HZ WSW (250°) 11.5mph 9°C 8°C
12/01/19 08:50 EGDY 120850Z AUTO 25009KT 9999 BKN018/// 09/07 Q1026 WSW (250°) 10.4mph 9°C 7°C
12/01/19 07:50 EGDY 120750Z AUTO 25007KT 9999 BKN020/// 08/07 Q1027 WSW (250°) 8.1mph 8°C 7°C
12/01/19 06:50 EGDY 120650Z AUTO 24006KT 9999 BKN008/// BKN027/// 08/07 Q1027 RERA WSW (240°) 6.9mph 8°C 7°C
12/01/19 05:50 EGDY 120550Z AUTO 28007KT 2800 RADZ BKN008/// BKN016/// 08/07 Q1027 RA DZ W (280°) 8.1mph 8°C 7°C
12/01/19 04:50 EGDY 120450Z AUTO 26008KT 9999 BKN017/// BKN025/// 09/06 Q1028 W (260°) 9.2mph 9°C 6°C
12/01/19 03:50 EGDY 120350Z AUTO 25009KT 9999 OVC023/// 09/07 Q1028 WSW (250°) 10.4mph 9°C 7°C
12/01/19 02:50 EGDY 120250Z AUTO 24005KT 9999 FEW019/// BKN025/// 08/06 Q1029 WSW (240°) 5.8mph 8°C 6°C
12/01/19 01:50 EGDY 120150Z AUTO 26005KT 9999 FEW023/// OVC028/// 08/06 Q1030 W (260°) 5.8mph 8°C 6°C
12/01/19 00:50 EGDY 120050Z AUTO 25005KT 9999 OVC030/// 08/06 Q1030 WSW (250°) 5.8mph 8°C 6°C
11/01/19 23:50 EGDY 112350Z AUTO 25005KT 9999 OVC032/// 08/05 Q1031 WSW (250°) 5.8mph 8°C 5°C
11/01/19 22:50 EGDY 112250Z AUTO 26005KT 9999 OVC027/// 07/05 Q1031 W (260°) 5.8mph 7°C 5°C
11/01/19 21:50 EGDY 112150Z AUTO 25003KT 9999 OVC034/// 07/05 Q1032 WSW (250°) 3.5mph 7°C 5°C
11/01/19 20:50 EGDY 112050Z AUTO 25003KT 9999 OVC034/// 07/05 Q1032 WSW (250°) 3.5mph 7°C 5°C
11/01/19 19:50 EGDY 111950Z AUTO 27004KT 9999 OVC032/// 07/06 Q1032 W (270°) 4.6mph 7°C 6°C
11/01/19 18:50 EGDY 111850Z AUTO 25004KT 9999 OVC031/// 07/05 Q1032 WSW (250°) 4.6mph 7°C 5°C
11/01/19 17:50 EGDY 111750Z AUTO 32003KT 9999 OVC031/// 07/05 Q1032 NW (320°) 3.5mph 7°C 5°C
11/01/19 16:50 EGDY 111650Z AUTO 31004KT 9999 BKN030/// 07/05 Q1032 NW (310°) 4.6mph 7°C 5°C
11/01/19 15:50 EGDY 111550Z 32006KT 9999 -RA FEW018 BKN030 08/06 Q1032 BLU NOSIG -RA NW (320°) 6.9mph 8°C 6°C
11/01/19 14:50 EGDY 111450Z 33010KT 9999 FEW018 BKN035 BKN200 08/06 Q1032 BLU NOSIG NNW (330°) 11.5mph 8°C 6°C
11/01/19 13:50 EGDY 111350Z 32011KT 9999 FEW018 BKN200 09/05 Q1031 BLU NOSIG NW (320°) 12.7mph 9°C 5°C
11/01/19 12:50 EGDY 111250Z 33010KT 9999 FEW018 SCT045 BKN200 09/05 Q1032 BLU NOSIG NNW (330°) 11.5mph 9°C 5°C
11/01/19 11:50 EGDY 111150Z 33009KT 9999 FEW020 BKN045 BKN200 08/05 Q1032 BLU NOSIG NNW (330°) 10.4mph 8°C 5°C
11/01/19 10:50 EGDY 111050Z 33006KT 9999 FEW025 BKN045 08/05 Q1032 BLU NOSIG NNW (330°) 6.9mph 8°C 5°C
11/01/19 09:50 EGDY 110950Z 35002KT 9999 BKN045 07/05 Q1032 BLU NOSIG N (350°) 2.3mph 7°C 5°C
11/01/19 08:50 EGDY 110850Z 32004KT CAVOK 06/04 Q1032 BLU NOSIG NW (320°) 4.6mph 6°C 4°C
11/01/19 07:50 EGDY 110750Z 02003KT CAVOK 06/03 Q1031 BLU NOSIG NNE (20°) 3.5mph 6°C 3°C
11/01/19 06:50 EGDY 110650Z 04005KT CAVOK 06/04 Q1031 BLU NE (40°) 5.8mph 6°C 4°C
11/01/19 05:50 EGDY 110550Z AUTO 33009KT 9999 OVC050/// 07/04 Q1030 NNW (330°) 10.4mph 7°C 4°C
11/01/19 04:50 EGDY 110450Z AUTO 33006KT 9999 OVC050/// 07/04 Q1030 NNW (330°) 6.9mph 7°C 4°C
11/01/19 03:50 EGDY 110350Z 33006KT 9999 FEW040 BKN050 07/04 Q1031 BLU NNW (330°) 6.9mph 7°C 4°C
11/01/19 02:50 EGDY 110250Z 32006KT 9999 FEW040 OVC050 07/05 Q1031 BLU NW (320°) 6.9mph 7°C 5°C
11/01/19 01:50 EGDY 110150Z 31006KT 9999 FEW040 BKN050 07/06 Q1031 BLU NW (310°) 6.9mph 7°C 6°C
11/01/19 00:50 EGDY 110050Z 27004KT 9999 BKN040 06/06 Q1031 BLU W (270°) 4.6mph 6°C 6°C
10/01/19 23:50 EGDY 102350Z 28006KT 9999 BKN040 07/06 Q1031 BLU W (280°) 6.9mph 7°C 6°C
10/01/19 22:50 EGDY 102250Z 31005KT 8000 BR FEW029 BKN036 06/06 Q1031 BLU BR NW (310°) 5.8mph 6°C 6°C
10/01/19 21:50 EGDY 102150Z 28006KT 6000 -DZ SCT013 BKN039 06/06 Q1032 GRN -DZ W (280°) 6.9mph 6°C 6°C
10/01/19 20:50 EGDY 102050Z 30006KT 8000 -DZ FEW008 OVC014 07/06 Q1031 GRN NOSIG -DZ WNW (300°) 6.9mph 7°C 6°C
10/01/19 19:50 EGDY 101950Z 30006KT 8000 HZ FEW008 OVC012 06/05 Q1031 GRN NOSIG HZ WNW (300°) 6.9mph 6°C 5°C
10/01/19 18:50 EGDY 101850Z 31007KT 9999 FEW008 OVC012 07/05 Q1031 GRN NOSIG NW (310°) 8.1mph 7°C 5°C
10/01/19 17:50 EGDY 101750Z 31006KT 9999 OVC012 06/05 Q1031 GRN NOSIG NW (310°) 6.9mph 6°C 5°C
10/01/19 16:50 EGDY 101650Z 32006KT 9999 OVC015 06/03 Q1031 WHT BECMG BKN012 GRN NW (320°) 6.9mph 6°C 3°C
10/01/19 15:50 EGDY 101550Z 31004KT 9999 BKN017 06/03 Q1031 WHT BECMG BKN012 GRN NW (310°) 4.6mph 6°C 3°C
10/01/19 14:50 EGDY 101450Z 29004KT 9999 SCT015 BKN020 06/02 Q1031 WHT BECMG BKN012 GRN WNW (290°) 4.6mph 6°C 2°C
10/01/19 13:50 EGDY 101350Z 32003KT 9999 BKN020 05/02 Q1031 WHT NOSIG NW (320°) 3.5mph 5°C 2°C
10/01/19 13:39 EGDY 101339Z 31002KT 9999 BKN020 04/02 Q1031 WHT NOSIG NW (310°) 2.3mph 4°C 2°C
10/01/19 12:50 EGDY 101250Z 26001KT 9999 FEW020 SCT040 BKN080 03/01 Q1032 BLU BECMG SCT020 WHT W (260°) 1.2mph 3°C 1°C
10/01/19 11:50 EGDY 101150Z 27003KT 9999 FEW040 BKN080 02/M00 Q1032 BLU NOSIG W (270°) 3.5mph 2°C 0°C
10/01/19 10:50 EGDY 101050Z 00000KT CAVOK M01/M01 Q1033 BLU NOSIG N (0°) -1°C -1°C
10/01/19 09:50 EGDY 100950Z 09001KT CAVOK M02/M02 Q1033 BLU NOSIG E (90°) 1.2mph -2°C -2°C
10/01/19 08:50 EGDY 100850Z 10001KT CAVOK M03/M03 Q1033 BLU NOSIG E (100°) 1.2mph -3°C -3°C
10/01/19 07:50 EGDY 100750Z 10003KT 8000 BR SCT050 BKN190 M03/M04 Q1032 BLU BECMG 9999 SCT050 BLU BR E (100°) 3.5mph -3°C -4°C
10/01/19 06:50 EGDY 100650Z 14001KT 8000 BR FEW060 BKN200 M03/M03 Q1032 BLU BR SE (140°) 1.2mph -3°C -3°C
10/01/19 05:50 EGDY 100550Z 24001KT CAVOK M03/M04 Q1032 BLU WSW (240°) 1.2mph -3°C -4°C
10/01/19 04:50 EGDY 100450Z 16002KT CAVOK M03/M04 Q1032 BLU SSE (160°) 2.3mph -3°C -4°C